Jacksonville Beach, FL

11:44 AM EST on December 22, 2014 (GMT -0500)
Atlantic Beach/Mayport | Change Station
CLOSE
Current Station
Personal Weather Station
Location: Atlantic Beach, FL
Elevation: 13 ft
Nearby Weather Stations

Elev 13 ft 30.37 °N, 81.41 °W | Updated 21 seconds ago

Overcast
Overcast
67.3 °F
Feels Like 67.3 °F
N
1.0
Wind Variable Wind from SSE
Gusts 3.0 mph

Today
High -- | Low -- °F
--% Chance of Precip.
Yesterday
High -- | Low -- °F
Precip. -- in
7:18 AM 5:29 PM
New Moon, 1% visible
Pressure 29.99 in
Visibility 10.0 miles
Clouds Few 2000 ft
Overcast 6000 ft
Dew Point 66 °F
Humidity 96%
Rainfall 0.00 in
Snow Depth Not available.
UV 1 out of 12
Pollen .50 out of 12
Air Quality Not available.
Flu Activity Not available.
METAR KNRB 221552Z 16012KT 10SM FEW020 OVC060 19/19 A2999 RMK AO2 SLP154 T01940194 $

More Conditions Fewer Conditions

Pressure 29.99 in
Visibility 10.0 miles
Clouds Few 2000 ft
Overcast 6000 ft
Dew Point 66 °F
Humidity 96%
Rainfall 0.00 in
Snow Depth Not available.
UV 1 out of 12
Pollen .50 out of 12
Air Quality Not available.
Flu Activity Not available.
METAR KNRB 221552Z 16012KT 10SM FEW020 OVC060 19/19 A2999 RMK AO2 SLP154 T01940194 $

More Conditions Fewer Conditions

10-Day Weather Forecast

Almanac

Astronomy

Dec. 22, 2014 Rise Set
Actual Time
Civil Twilight
Nautical Twilight
Astronomical Twilight
Moon
Length of Visible Light
Length of Day
Tomorrow will be .
, % of the Moon is Illuminated

Today's Extremes

State Highs State Lows

Community

WunderPhotos

Upload Photos

1,779,641 photos uploaded!

WunderBlogs® & News

Nearby

Air Quality

  Air Quality AQ Index Pollutant
Not available.

Snow Depth

Station Depth Elevation

Earthquake Activity

City Distance Mag. Time & Date
Minimum magnitude displayed is 2.5.

Coastal Water Temperatures

Place Temperature

Nearby Weather Stations